createdAt,value
2019-03-05T00:43:52.824Z,0.00
2019-03-05T00:44:52.819Z,0.00
2019-03-05T00:45:52.813Z,0.00
2019-03-05T00:46:52.803Z,0.00
2019-03-05T00:47:52.796Z,0.00
2019-03-05T00:48:52.801Z,0.00
2019-03-05T00:49:52.776Z,0.00
2019-03-05T00:50:52.771Z,0.00
2019-03-05T00:51:52.761Z,0.00
2019-03-05T00:52:52.756Z,0.00
2019-03-05T01:02:58.328Z,0.00
2019-03-05T01:06:23.944Z,0.00
2019-03-05T01:07:23.938Z,0.00
2019-03-05T01:08:23.927Z,0.00
2019-03-05T01:09:23.922Z,0.00
2019-03-05T01:10:23.913Z,0.00
2019-03-05T01:11:23.908Z,0.00
2019-03-05T01:12:23.896Z,0.00
2019-03-05T01:13:23.890Z,0.00
2019-03-05T01:14:23.882Z,0.00
2019-03-05T01:15:23.877Z,0.00
2019-03-05T01:16:23.866Z,0.00
2019-03-05T01:17:23.859Z,0.00
2019-03-05T01:18:23.850Z,0.00
2019-03-05T01:19:23.844Z,0.00
2019-03-05T03:35:33.014Z,0.00
2019-03-05T03:36:33.014Z,0.00
2019-03-05T03:37:32.997Z,0.00
2019-03-05T03:38:33.194Z,0.00
2019-03-05T03:39:33.193Z,0.00
2019-03-05T03:51:55.016Z,0.00
2019-03-05T03:52:55.021Z,0.00
2019-03-05T03:53:55.012Z,0.00
2019-03-05T03:54:54.992Z,0.00
2019-03-05T08:48:54.459Z,928.00
2019-03-05T08:49:54.454Z,764.00
2019-03-05T08:50:54.444Z,828.00
2019-03-05T08:51:54.447Z,896.00
2019-03-05T08:52:54.426Z,1024.00
2019-03-05T08:53:54.423Z,1284.00
2019-03-05T09:29:03.391Z,3708.00
2019-03-05T09:30:03.366Z,3440.00
2019-03-05T09:31:03.357Z,2648.00
2019-03-05T09:32:03.351Z,2072.00
2019-03-05T09:33:03.341Z,1564.00
2019-03-05T09:34:03.336Z,1260.00
2019-03-05T09:35:03.335Z,1524.00
2019-03-05T09:36:03.339Z,1652.00
2019-03-05T09:37:03.311Z,1764.00
2019-03-05T09:38:03.308Z,1676.00
2019-03-05T09:39:03.374Z,1464.00
2019-03-05T09:40:03.290Z,1316.00
2019-03-05T09:41:03.284Z,1372.00
2019-03-05T09:42:03.273Z,1652.00
2019-03-05T09:43:03.268Z,2256.00
2019-03-05T09:44:03.264Z,3296.00
2019-03-05T09:45:03.250Z,4372.00
2019-03-05T09:52:10.498Z,2248.00
2019-03-05T11:00:37.638Z,4424.00
2019-03-05T11:01:37.132Z,4884.00
2019-03-05T11:02:37.122Z,5048.00
2019-03-05T11:03:37.116Z,4932.00
2019-03-05T11:04:45.495Z,4796.00
2019-03-05T11:05:37.107Z,4948.00
2019-03-05T11:06:37.096Z,5228.00
2019-03-05T11:07:37.089Z,5656.00
2019-03-05T11:08:37.080Z,5540.00
2019-03-05T11:09:37.076Z,5156.00
2019-03-05T11:10:37.067Z,5252.00
2019-03-05T11:11:37.067Z,4672.00
2019-03-05T11:13:37.050Z,4568.00
2019-03-05T11:14:37.044Z,4768.00
2019-03-05T11:15:37.034Z,4248.00
2019-03-05T13:25:38.623Z,12460.00
2019-03-05T13:26:41.088Z,18656.00
2019-03-05T13:27:38.486Z,12104.00
2019-03-05T13:28:40.468Z,4108.00
2019-03-05T13:29:38.672Z,3284.00
2019-03-05T13:30:40.324Z,2372.00
2019-03-05T13:31:38.667Z,2184.00
2019-03-05T13:32:38.470Z,2220.00
2019-03-05T13:33:41.877Z,2324.00
2019-03-05T13:34:38.474Z,2392.00
2019-03-05T13:35:38.455Z,2476.00
2019-03-05T13:36:38.619Z,7676.00
2019-03-05T13:37:38.470Z,6964.00
2019-03-05T13:38:41.761Z,4640.00
2019-03-05T13:39:38.440Z,3772.00
2019-03-05T13:40:40.283Z,2616.00
2019-03-05T13:41:38.435Z,2176.00
2019-03-05T13:42:38.434Z,1720.00
2019-03-05T13:43:38.428Z,1844.00
2019-03-05T13:44:38.428Z,2080.00
2019-03-05T13:45:42.215Z,2068.00
2019-03-05T13:46:38.439Z,2332.00
2019-03-05T13:47:41.635Z,2544.00
2019-03-05T13:48:38.420Z,2356.00
2019-03-05T13:49:40.962Z,2052.00
2019-03-05T13:51:38.403Z,2212.00
2019-03-05T13:52:38.397Z,2420.00
2019-03-05T13:54:38.595Z,2984.00
2019-03-05T13:55:40.299Z,3216.00
2019-03-05T13:56:42.337Z,8136.00
2019-03-05T13:57:38.376Z,8320.00
2019-03-05T13:58:38.388Z,7932.00
2019-03-05T13:59:38.369Z,3304.00
2019-03-05T14:00:38.377Z,2836.00
2019-03-05T14:01:38.364Z,6224.00
2019-03-05T14:02:38.362Z,2664.00
2019-03-05T14:03:38.373Z,2436.00
2019-03-05T14:04:38.383Z,2156.00
2019-03-05T14:05:38.352Z,1764.00
2019-03-05T14:29:00.076Z,1888.00
2019-03-05T14:30:02.600Z,2208.00
2019-03-05T14:31:00.081Z,3764.00
2019-03-05T14:32:00.117Z,3848.00
2019-03-05T14:33:00.950Z,3168.00
2019-03-05T14:34:00.083Z,3812.00
2019-03-05T14:35:00.099Z,3560.00
2019-03-05T14:36:00.104Z,3364.00
2019-03-05T14:37:00.075Z,3352.00
2019-03-05T14:38:00.067Z,3524.00
2019-03-05T14:39:01.480Z,3708.00
2019-03-05T14:40:19.034Z,3968.00
2019-03-05T14:41:00.068Z,3868.00
2019-03-05T14:42:01.293Z,3644.00
2019-03-05T14:43:00.256Z,3504.00
2019-03-05T14:44:00.110Z,3492.00
2019-03-05T14:45:00.064Z,3500.00
2019-03-05T14:46:00.054Z,3432.00
2019-03-05T14:47:00.079Z,3324.00
2019-03-05T14:48:00.072Z,3288.00
2019-03-05T14:49:00.051Z,3408.00
2019-03-05T14:50:00.054Z,3404.00
2019-03-05T14:51:00.055Z,3264.00
2019-03-05T14:52:00.089Z,3188.00
2019-03-05T14:53:00.076Z,3116.00
2019-03-05T14:54:00.081Z,3024.00
2019-03-05T14:55:00.051Z,2980.00
2019-03-05T14:56:00.061Z,2912.00
2019-03-05T14:57:00.067Z,2824.00
2019-03-05T14:58:00.097Z,2760.00
2019-03-05T14:59:00.075Z,2740.00
2019-03-05T15:00:00.086Z,2788.00
2019-03-05T15:01:00.054Z,2788.00
2019-03-05T15:02:02.147Z,2652.00
2019-03-05T15:03:00.071Z,2660.00
2019-03-05T15:04:00.089Z,2620.00
2019-03-05T15:05:00.451Z,2572.00
2019-03-05T15:06:00.097Z,2540.00
2019-03-05T15:07:00.098Z,2488.00
2019-03-05T15:08:00.093Z,2424.00
2019-03-05T15:09:00.077Z,2224.00
2019-03-05T15:10:00.054Z,1928.00
2019-03-05T15:11:00.073Z,1748.00
2019-03-05T15:12:00.065Z,1744.00
2019-03-05T15:13:00.076Z,1692.00
2019-03-05T15:14:00.085Z,1476.00
2019-03-05T15:15:00.053Z,1200.00
2019-03-05T15:16:00.055Z,1104.00
2019-03-05T15:17:00.091Z,1452.00
2019-03-05T15:18:00.078Z,1500.00
2019-03-05T15:19:00.077Z,1656.00
2019-03-05T15:20:00.117Z,1572.00
2019-03-05T15:21:00.076Z,1388.00
2019-03-05T15:22:00.148Z,1068.00
2019-03-05T15:23:00.039Z,1048.00
2019-03-05T15:24:00.042Z,1120.00
2019-03-05T15:25:00.089Z,1428.00
2019-03-05T15:26:00.035Z,1360.00
2019-03-05T15:27:00.060Z,1464.00
2019-03-05T15:37:18.825Z,1228.00
2019-03-05T15:38:18.814Z,1176.00
2019-03-05T15:39:18.817Z,1132.00
2019-03-05T15:40:18.856Z,1080.00
2019-03-05T15:41:18.812Z,1048.00
2019-03-05T15:43:18.788Z,1152.00
2019-03-05T15:54:47.580Z,1244.00
2019-03-05T15:55:47.573Z,1124.00
2019-03-05T15:56:47.615Z,1056.00
2019-03-05T15:57:47.562Z,972.00
2019-03-05T15:58:47.583Z,940.00
2019-03-05T15:59:47.559Z,900.00
2019-03-05T16:00:47.549Z,824.00
2019-03-05T16:01:47.542Z,784.00
2019-03-05T16:02:47.538Z,736.00
2019-03-05T16:03:47.534Z,716.00
2019-03-05T16:04:47.528Z,688.00
2019-03-05T16:05:47.522Z,664.00
2019-03-05T16:06:49.698Z,656.00
2019-03-05T16:07:48.034Z,652.00
2019-03-05T16:08:47.508Z,680.00
2019-03-05T16:09:47.502Z,712.00
2019-03-05T16:10:50.427Z,756.00
2019-03-05T16:11:47.489Z,804.00
2019-03-05T16:12:47.484Z,812.00
2019-03-05T16:13:47.477Z,884.00
2019-03-05T16:14:47.626Z,924.00
2019-03-05T16:15:47.467Z,952.00
2019-03-05T16:16:51.672Z,776.00
2019-03-05T16:17:47.455Z,784.00
2019-03-05T16:18:47.485Z,756.00
2019-03-05T16:19:49.065Z,724.00
2019-03-05T16:20:47.440Z,708.00
2019-03-05T16:21:47.433Z,688.00
2019-03-05T16:22:51.165Z,680.00
2019-03-05T16:23:47.427Z,660.00
2019-03-05T16:24:47.419Z,660.00
2019-03-05T16:25:50.443Z,640.00
2019-03-05T16:26:47.407Z,624.00
2019-03-05T16:27:47.399Z,592.00
2019-03-05T16:28:47.395Z,572.00
2019-03-05T16:29:47.387Z,556.00
2019-03-05T16:30:47.385Z,548.00
2019-03-05T16:31:49.855Z,536.00
2019-03-05T16:32:47.372Z,528.00
2019-03-05T16:33:47.369Z,512.00
2019-03-05T16:34:47.361Z,504.00
2019-03-05T16:35:51.837Z,492.00
2019-03-05T16:36:47.351Z,476.00
2019-03-05T16:37:47.341Z,468.00
2019-03-05T16:38:47.337Z,460.00
2019-03-05T16:39:47.330Z,452.00
2019-03-05T16:40:47.325Z,440.00
2019-03-05T16:41:47.317Z,428.00
2019-03-05T16:42:47.314Z,416.00
2019-03-05T16:43:47.307Z,404.00
2019-03-05T16:44:47.350Z,396.00
2019-03-05T16:45:47.294Z,380.00
2019-03-05T16:46:47.290Z,368.00
2019-03-05T16:47:47.283Z,356.00
2019-03-05T16:48:47.319Z,340.00
2019-03-05T16:49:47.270Z,320.00
2019-03-05T16:50:47.267Z,304.00
2019-03-05T16:51:47.260Z,284.00
2019-03-05T16:52:47.255Z,264.00
2019-03-05T16:53:47.250Z,244.00
2019-03-05T16:54:47.244Z,232.00
2019-03-05T16:55:47.236Z,220.00
2019-03-05T16:56:47.233Z,204.00
2019-03-05T16:57:47.223Z,192.00
2019-03-05T16:58:47.220Z,180.00
2019-03-05T16:59:47.212Z,168.00
2019-03-05T17:00:49.208Z,160.00
2019-03-05T17:01:47.200Z,148.00
2019-03-05T17:02:47.196Z,136.00
2019-03-05T17:03:47.191Z,128.00
2019-03-05T17:04:47.183Z,124.00
2019-03-05T17:05:47.176Z,116.00
2019-03-05T17:06:47.172Z,104.00
2019-03-05T17:07:47.163Z,100.00
2019-03-05T17:08:47.159Z,88.00
2019-03-05T17:09:47.152Z,80.00
2019-03-05T17:10:47.178Z,76.00
2019-03-05T17:11:47.139Z,68.00
2019-03-05T17:12:47.134Z,60.00
2019-03-05T17:13:47.126Z,56.00
2019-03-05T17:14:47.126Z,52.00
2019-03-05T17:15:47.113Z,48.00
2019-03-05T17:16:47.109Z,44.00
2019-03-05T17:17:47.102Z,40.00
2019-03-05T17:18:47.099Z,32.00
2019-03-05T17:19:47.088Z,32.00
2019-03-05T17:20:47.084Z,28.00
2019-03-05T17:21:47.076Z,24.00
2019-03-05T17:22:47.072Z,20.00
2019-03-05T17:23:47.065Z,20.00
2019-03-05T17:24:47.059Z,16.00
2019-03-05T17:25:47.050Z,16.00
2019-03-05T17:26:47.048Z,12.00
2019-03-05T17:27:47.055Z,12.00
2019-03-05T17:28:47.034Z,12.00
2019-03-05T17:29:47.025Z,8.00
2019-03-05T17:30:47.026Z,8.00
2019-03-05T17:31:47.013Z,8.00
2019-03-05T17:32:47.008Z,4.00
2019-03-05T17:33:47.000Z,8.00
2019-03-05T17:34:46.995Z,4.00
2019-03-05T17:35:46.986Z,4.00
2019-03-05T17:36:46.981Z,0.00
2019-03-05T17:37:46.973Z,4.00
2019-03-05T17:38:46.968Z,4.00
2019-03-05T17:39:46.960Z,4.00
2019-03-05T17:40:46.956Z,4.00
2019-03-05T17:41:46.950Z,0.00
2019-03-05T17:42:46.953Z,0.00
2019-03-05T17:43:46.935Z,0.00
2019-03-05T17:44:46.928Z,0.00
2019-03-05T17:45:46.919Z,0.00
2019-03-05T17:46:46.917Z,0.00
2019-03-05T17:47:46.906Z,0.00
2019-03-05T17:48:46.900Z,0.00
2019-03-05T17:49:46.896Z,0.00
2019-03-05T17:50:46.901Z,0.00
2019-03-05T17:51:46.878Z,0.00
2019-03-05T17:52:46.873Z,0.00
2019-03-05T17:53:46.864Z,0.00
2019-03-05T17:54:46.861Z,0.00
2019-03-05T17:55:46.850Z,0.00
2019-03-05T17:56:46.847Z,0.00
2019-03-05T17:57:46.836Z,0.00
2019-03-05T17:58:46.831Z,0.00
2019-03-05T17:59:47.074Z,0.00
2019-03-05T18:00:46.818Z,0.00
2019-03-05T18:01:46.808Z,0.00
2019-03-05T18:02:46.804Z,0.00
2019-03-05T18:03:46.794Z,0.00
2019-03-05T18:04:46.788Z,0.00
2019-03-05T18:05:47.082Z,0.00
2019-03-05T18:06:46.775Z,0.00
2019-03-05T18:07:46.765Z,0.00
2019-03-05T18:08:46.760Z,0.00
2019-03-05T18:09:46.751Z,0.00
2019-03-05T18:10:46.746Z,0.00
2019-03-05T18:11:46.737Z,0.00
2019-03-05T18:12:46.733Z,0.00
2019-03-05T18:13:46.722Z,0.00
2019-03-05T18:14:46.718Z,0.00
2019-03-05T18:15:46.709Z,0.00
2019-03-05T18:16:46.704Z,0.00
2019-03-05T18:17:46.697Z,0.00
2019-03-05T18:18:46.698Z,0.00
2019-03-05T18:19:46.680Z,0.00
2019-03-05T18:20:46.675Z,0.00
2019-03-05T18:21:46.673Z,0.00
2019-03-05T18:22:46.659Z,0.00
2019-03-05T18:23:46.652Z,0.00
2019-03-05T18:24:46.645Z,0.00
2019-03-05T18:25:46.635Z,0.00
2019-03-05T18:26:46.629Z,0.00
2019-03-05T18:27:46.621Z,0.00
2019-03-05T18:28:47.828Z,0.00
2019-03-05T18:29:46.607Z,0.00
2019-03-05T18:30:46.600Z,0.00
2019-03-05T18:31:46.593Z,0.00
2019-03-05T18:32:46.584Z,0.00
2019-03-05T18:33:46.575Z,0.00
2019-03-05T18:34:46.722Z,0.00
2019-03-05T18:35:46.562Z,0.00
2019-03-05T18:36:46.555Z,0.00
2019-03-05T18:37:46.548Z,0.00
2019-03-05T18:38:46.540Z,0.00
2019-03-05T18:39:46.531Z,0.00
2019-03-05T18:40:46.525Z,0.00
2019-03-05T18:41:46.516Z,0.00
2019-03-05T18:42:46.510Z,0.00
2019-03-05T18:43:46.501Z,0.00
2019-03-05T18:44:46.495Z,0.00
2019-03-05T18:45:46.485Z,0.00
2019-03-05T18:46:46.480Z,0.00
2019-03-05T18:47:46.474Z,0.00
2019-03-05T18:48:46.465Z,0.00
2019-03-05T18:49:46.455Z,0.00
2019-03-05T18:50:46.451Z,0.00
2019-03-05T18:51:46.441Z,0.00
2019-03-05T18:52:46.438Z,0.00
2019-03-05T18:53:46.425Z,0.00
2019-03-05T18:54:46.422Z,0.00
2019-03-05T18:55:46.412Z,0.00
2019-03-05T18:56:46.408Z,0.00
2019-03-05T18:57:46.396Z,0.00
2019-03-05T18:58:46.392Z,0.00
2019-03-05T18:59:46.383Z,0.00
2019-03-05T19:00:46.375Z,0.00
2019-03-05T19:01:46.366Z,0.00
2019-03-05T19:02:46.363Z,0.00
2019-03-05T19:03:46.355Z,0.00
2019-03-05T19:04:46.346Z,0.00
2019-03-05T19:05:46.338Z,0.00
2019-03-05T19:06:46.333Z,0.00
2019-03-05T19:07:47.004Z,0.00
2019-03-05T19:08:46.317Z,0.00
2019-03-05T19:09:46.308Z,0.00
2019-03-05T19:10:46.302Z,0.00
2019-03-05T19:11:46.298Z,0.00
2019-03-05T19:12:46.288Z,0.00
2019-03-05T19:13:46.278Z,0.00
2019-03-05T19:14:46.279Z,0.00
2019-03-05T19:15:46.265Z,0.00
2019-03-05T19:16:46.259Z,0.00
2019-03-05T19:17:46.250Z,0.00
2019-03-05T19:18:46.245Z,0.00
2019-03-05T19:19:46.236Z,0.00
2019-03-05T19:20:46.229Z,0.00
2019-03-05T19:21:46.220Z,0.00
2019-03-05T19:22:46.215Z,0.00
2019-03-05T19:23:46.207Z,0.00
2019-03-05T19:24:46.201Z,0.00
2019-03-05T19:25:46.194Z,0.00
2019-03-05T19:26:46.186Z,0.00
2019-03-05T19:27:46.177Z,0.00
2019-03-05T19:28:46.171Z,0.00
2019-03-05T19:29:46.162Z,0.00
2019-03-05T19:30:46.162Z,0.00
2019-03-05T19:31:46.149Z,0.00
2019-03-05T19:32:46.142Z,0.00
2019-03-05T19:33:46.133Z,0.00
2019-03-05T19:34:46.128Z,0.00
2019-03-05T19:35:46.119Z,0.00
2019-03-05T19:36:46.112Z,0.00
2019-03-05T19:37:46.103Z,0.00
2019-03-05T19:38:46.098Z,0.00
2019-03-05T19:39:46.092Z,0.00
2019-03-05T19:40:46.096Z,0.00
2019-03-05T19:41:55.591Z,0.00
2019-03-05T19:42:46.073Z,0.00
2019-03-05T19:43:46.059Z,0.00
2019-03-05T19:44:46.054Z,0.00
2019-03-05T19:45:46.045Z,0.00
2019-03-05T19:46:46.039Z,0.00
2019-03-05T19:47:46.038Z,0.00
2019-03-05T19:48:46.037Z,0.00
2019-03-05T19:49:46.014Z,0.00
2019-03-05T19:50:46.010Z,0.00
2019-03-05T19:51:46.000Z,0.00
2019-03-05T19:52:45.994Z,0.00
2019-03-05T19:53:45.985Z,0.00
2019-03-05T19:54:45.980Z,0.00
2019-03-05T19:55:45.972Z,0.00
2019-03-05T19:56:45.964Z,0.00
2019-03-05T19:57:45.959Z,0.00
2019-03-05T19:58:45.950Z,0.00
2019-03-05T19:59:45.941Z,0.00
2019-03-05T20:00:45.935Z,0.00
2019-03-05T20:01:45.925Z,0.00
2019-03-05T20:02:45.920Z,0.00
2019-03-05T20:03:45.911Z,0.00
2019-03-05T20:04:45.912Z,0.00
2019-03-05T20:05:45.895Z,0.00
2019-03-05T20:06:45.890Z,0.00
2019-03-05T20:07:45.881Z,0.00
2019-03-05T20:08:45.877Z,0.00
2019-03-05T20:09:45.867Z,0.00
2019-03-05T20:10:45.858Z,0.00
2019-03-05T20:11:45.853Z,0.00
2019-03-05T20:12:45.842Z,0.00
2019-03-05T20:13:45.837Z,0.00
2019-03-05T20:14:45.829Z,0.00
2019-03-05T20:15:45.822Z,0.00
2019-03-05T20:16:45.812Z,0.00
2019-03-05T20:17:45.806Z,0.00
2019-03-05T20:18:45.797Z,0.00
2019-03-05T20:19:45.794Z,0.00
2019-03-05T20:20:45.791Z,0.00
2019-03-05T20:21:45.780Z,0.00
2019-03-05T20:22:45.768Z,0.00
2019-03-05T20:23:45.760Z,0.00
2019-03-05T20:24:45.750Z,0.00
2019-03-05T20:25:45.745Z,0.00
2019-03-05T20:26:45.735Z,0.00
2019-03-05T20:27:45.729Z,0.00
2019-03-05T20:28:45.719Z,0.00
2019-03-05T20:29:45.715Z,0.00
2019-03-05T20:30:45.703Z,0.00
2019-03-05T20:31:45.700Z,0.00
2019-03-05T20:32:45.689Z,0.00
2019-03-05T20:33:45.682Z,0.00
2019-03-05T20:34:46.682Z,0.00
2019-03-05T20:35:45.667Z,0.00
2019-03-05T20:36:45.655Z,0.00
2019-03-05T20:37:45.650Z,0.00
2019-03-05T20:38:45.640Z,0.00
2019-03-05T20:39:45.638Z,0.00
2019-03-05T20:40:45.625Z,0.00
2019-03-05T20:41:45.620Z,0.00
2019-03-05T20:42:45.609Z,0.00
2019-03-05T20:43:45.607Z,0.00
2019-03-05T20:44:45.593Z,0.00
2019-03-05T20:45:45.587Z,0.00
2019-03-05T20:46:45.578Z,0.00
2019-03-05T20:47:45.572Z,0.00
2019-03-05T20:48:45.561Z,0.00
2019-03-05T20:49:45.556Z,0.00
2019-03-05T20:50:45.546Z,0.00
2019-03-05T20:51:45.540Z,0.00
2019-03-05T20:52:45.531Z,0.00
2019-03-05T20:53:45.524Z,0.00
2019-03-05T20:54:45.515Z,0.00
2019-03-05T20:55:45.510Z,0.00
2019-03-05T20:56:45.498Z,0.00
2019-03-05T20:57:45.494Z,0.00
2019-03-05T20:58:45.482Z,0.00
2019-03-05T20:59:45.477Z,0.00
2019-03-05T21:00:45.466Z,0.00
2019-03-05T21:01:45.461Z,0.00
2019-03-05T21:02:45.451Z,0.00
2019-03-05T21:03:45.446Z,0.00
2019-03-05T21:04:45.438Z,0.00
2019-03-05T21:05:45.430Z,0.00
2019-03-05T21:06:45.419Z,0.00
2019-03-05T21:07:45.415Z,0.00
2019-03-05T21:08:45.403Z,0.00
2019-03-05T21:09:45.417Z,0.00
2019-03-05T21:10:45.388Z,0.00
2019-03-05T21:11:45.383Z,0.00
2019-03-05T21:12:45.372Z,0.00
2019-03-05T21:13:45.375Z,0.00
2019-03-05T21:14:45.357Z,0.00
2019-03-05T21:15:45.451Z,0.00
2019-03-05T21:16:45.341Z,0.00
2019-03-05T21:17:45.339Z,0.00
2019-03-05T21:18:45.329Z,0.00
2019-03-05T21:19:45.321Z,0.00
2019-03-05T21:20:45.309Z,0.00
2019-03-05T21:21:45.304Z,0.00
2019-03-05T21:22:45.300Z,0.00
2019-03-05T21:23:45.289Z,0.00
2019-03-05T21:24:45.277Z,0.00
2019-03-05T21:25:45.271Z,0.00
2019-03-05T21:26:45.262Z,0.00
2019-03-05T21:27:45.257Z,0.00
2019-03-05T21:28:45.245Z,0.00
2019-03-05T21:29:45.240Z,0.00
2019-03-05T21:30:45.231Z,0.00
2019-03-05T21:31:45.225Z,0.00
2019-03-05T21:32:45.217Z,0.00
2019-03-05T21:33:45.220Z,0.00
2019-03-05T21:34:46.995Z,0.00
2019-03-05T21:35:45.192Z,0.00
2019-03-05T21:36:45.182Z,0.00
2019-03-05T21:37:45.175Z,0.00
2019-03-05T21:38:45.166Z,0.00
2019-03-05T21:39:45.167Z,0.00
2019-03-05T21:40:45.165Z,0.00
2019-03-05T21:41:45.143Z,0.00
2019-03-05T21:42:45.135Z,0.00
2019-03-05T21:43:45.128Z,0.00
2019-03-05T21:44:45.116Z,0.00
2019-03-05T21:45:45.111Z,0.00
2019-03-05T21:46:45.101Z,0.00
2019-03-05T21:47:45.096Z,0.00
2019-03-05T21:48:45.087Z,0.00
2019-03-05T21:49:45.079Z,0.00
2019-03-05T21:50:45.068Z,0.00
2019-03-05T21:51:45.064Z,0.00
2019-03-05T21:52:45.052Z,0.00
2019-03-05T21:53:45.046Z,0.00
2019-03-05T21:54:45.038Z,0.00
2019-03-05T21:55:45.034Z,0.00
2019-03-05T21:56:45.019Z,0.00
2019-03-05T21:57:45.018Z,0.00
2019-03-05T21:58:45.003Z,0.00
2019-03-05T21:59:44.998Z,0.00
2019-03-05T22:00:44.987Z,0.00
2019-03-05T22:01:44.981Z,0.00
2019-03-05T22:02:44.971Z,0.00
2019-03-05T22:03:44.965Z,0.00
2019-03-05T22:04:44.955Z,0.00
2019-03-05T22:05:44.949Z,0.00
2019-03-05T22:06:44.939Z,0.00
2019-03-05T22:07:44.933Z,0.00
2019-03-05T22:08:44.921Z,0.00
2019-03-05T22:09:44.916Z,0.00
2019-03-05T22:10:44.907Z,0.00
2019-03-05T22:11:44.900Z,0.00
2019-03-05T22:12:44.891Z,0.00
2019-03-05T22:13:44.885Z,0.00
2019-03-05T22:14:44.872Z,0.00
2019-03-05T22:15:44.867Z,0.00
2019-03-05T22:16:44.856Z,0.00
2019-03-05T22:17:44.850Z,0.00
2019-03-05T22:18:44.839Z,0.00
2019-03-05T22:19:44.834Z,0.00
2019-03-05T22:20:44.822Z,0.00
2019-03-05T22:21:44.819Z,0.00
2019-03-05T22:22:44.806Z,0.00
2019-03-05T22:23:44.802Z,0.00
2019-03-05T22:24:44.789Z,0.00
2019-03-05T22:25:44.806Z,0.00
2019-03-05T22:26:44.773Z,0.00
2019-03-05T22:27:44.768Z,0.00
2019-03-05T22:28:44.757Z,0.00
2019-03-05T22:29:44.751Z,0.00
2019-03-05T22:30:44.740Z,0.00
2019-03-05T22:31:44.735Z,0.00
2019-03-05T22:32:44.723Z,0.00
2019-03-05T22:33:44.721Z,0.00
2019-03-05T22:34:44.711Z,0.00
2019-03-05T22:35:44.703Z,0.00
2019-03-05T22:36:44.690Z,0.00
2019-03-05T22:37:44.687Z,0.00
2019-03-05T22:38:44.674Z,0.00
2019-03-05T22:39:44.668Z,0.00
2019-03-05T22:40:44.658Z,0.00
2019-03-05T22:41:44.651Z,0.00
2019-03-05T22:42:44.640Z,0.00
2019-03-05T22:43:44.638Z,0.00
2019-03-05T22:44:44.623Z,0.00
2019-03-05T22:45:44.618Z,0.00
2019-03-05T22:46:44.607Z,0.00
2019-03-05T22:47:44.602Z,0.00
2019-03-05T22:48:44.591Z,0.00
2019-03-05T22:49:44.584Z,0.00
2019-03-05T22:50:44.574Z,0.00
2019-03-05T22:51:44.568Z,0.00
2019-03-05T22:52:44.556Z,0.00
2019-03-05T22:53:44.550Z,0.00
2019-03-05T22:54:44.541Z,0.00
2019-03-05T22:55:44.535Z,0.00
2019-03-05T22:56:44.523Z,0.00
2019-03-05T22:57:44.517Z,0.00
2019-03-05T22:58:44.506Z,0.00
2019-03-05T22:59:44.502Z,0.00
2019-03-05T23:00:44.489Z,0.00
2019-03-05T23:01:44.483Z,0.00
2019-03-05T23:02:44.473Z,0.00
2019-03-05T23:03:44.466Z,0.00
2019-03-05T23:04:44.455Z,0.00
2019-03-05T23:05:44.449Z,0.00
2019-03-05T23:06:44.439Z,0.00
2019-03-05T23:07:44.433Z,0.00
2019-03-05T23:08:44.422Z,0.00
2019-03-05T23:09:44.433Z,0.00
2019-03-05T23:10:44.405Z,0.00
2019-03-05T23:11:44.399Z,0.00
2019-03-05T23:12:44.387Z,0.00
2019-03-05T23:13:44.382Z,0.00
2019-03-05T23:14:44.375Z,0.00
2019-03-05T23:15:44.401Z,0.00
2019-03-05T23:16:44.354Z,0.00
2019-03-05T23:17:44.346Z,0.00
2019-03-05T23:18:44.338Z,0.00
2019-03-05T23:19:44.340Z,0.00
2019-03-05T23:20:44.338Z,0.00
2019-03-05T23:21:44.312Z,0.00
2019-03-05T23:22:44.345Z,0.00
2019-03-05T23:23:44.296Z,0.00
2019-03-05T23:24:44.284Z,0.00
2019-03-05T23:25:44.283Z,0.00
2019-03-05T23:26:44.280Z,0.00
2019-03-05T23:27:44.262Z,0.00
2019-03-05T23:28:44.249Z,0.00
2019-03-05T23:29:44.243Z,0.00
2019-03-05T23:30:44.233Z,0.00
2019-03-05T23:31:44.227Z,0.00
2019-03-05T23:32:44.216Z,0.00
2019-03-05T23:33:44.210Z,0.00
2019-03-05T23:34:44.200Z,0.00
2019-03-05T23:35:44.204Z,0.00
2019-03-05T23:36:44.181Z,0.00
2019-03-05T23:37:44.174Z,0.00
2019-03-05T23:38:44.164Z,0.00
2019-03-05T23:39:44.158Z,0.00
2019-03-05T23:40:44.146Z,0.00
2019-03-05T23:41:44.140Z,0.00
2019-03-05T23:42:44.129Z,0.00
2019-03-05T23:43:44.124Z,0.00
2019-03-05T23:44:44.113Z,0.00
2019-03-05T23:45:44.107Z,0.00
2019-03-05T23:46:44.095Z,0.00
2019-03-05T23:47:44.089Z,0.00
2019-03-05T23:48:44.078Z,0.00
2019-03-05T23:49:44.072Z,0.00
2019-03-05T23:50:44.075Z,0.00
2019-03-05T23:51:44.055Z,0.00
2019-03-05T23:52:44.044Z,0.00
2019-03-05T23:53:44.038Z,0.00
2019-03-05T23:54:44.027Z,0.00
2019-03-05T23:55:44.029Z,0.00
2019-03-05T23:56:44.009Z,0.00
2019-03-05T23:57:44.006Z,0.00
2019-03-05T23:58:43.996Z,0.00
2019-03-05T23:59:43.987Z,0.00
